Date,TemperatureHighF,TemperatureAvgF,TemperatureLowF,DewpointHighF,DewpointAvgF,DewpointLowF,HumidityHigh,HumidityAvg,HumidityLow,PressureMaxIn,PressureMinIn,WindSpeedMaxMPH,WindSpeedAvgMPH,GustSpeedMaxMPH,PrecipitationSumIn
2013-1-1,15,4,-10,2,-6,-16,78,64,46,0.00,40.00,10,5,16,0.00
2013-1-2,26,18,13,10,8,4,78,64,45,0.00,40.00,7,5,12,0.00
2013-1-3,24,18,10,18,12,2,83,76,70,0.00,40.00,11,8,18,0.00
2013-1-4,31,17,5,15,9,1,85,72,50,0.00,40.00,12,6,20,0.00
2013-1-5,35,21,6,26,15,1,89,76,59,0.00,40.00,11,5,19,0.00
2013-1-6,30,22,10,19,15,6,88,76,64,0.00,40.00,13,8,21,0.00
2013-1-7,40,26,11,23,17,6,87,69,46,0.00,40.00,16,8,31,0.00
2013-1-8,40,27,11,29,20,8,92,77,57,0.00,40.00,14,4,24,0.00
2013-1-9,40,33,20,29,23,17,87,66,44,0.00,40.00,17,11,35,0.00
2013-1-10,39,29,16,34,22,14,98,78,47,0.00,40.00,9,5,18,0.14
2013-1-11,43,38,34,43,38,34,100,100,97,0.00,40.00,8,4,13,0.19
2013-1-12,46,30,17,44,22,7,100,72,57,0.00,40.00,19,11,40,0.03
2013-1-13,17,12,8,8,2,-1,74,65,58,0.00,40.00,13,9,24,0.00
2013-1-14,22,10,0,8,2,-5,82,69,51,0.00,40.00,15,5,25,0.00
2013-1-15,31,17,1,12,6,-4,84,64,40,0.00,40.00,14,6,23,0.00
2013-1-16,32,26,19,30,18,4,92,70,49,0.00,40.00,14,9,30,0.00
2013-1-17,22,15,7,7,1,-4,83,56,38,0.00,40.00,12,7,25,0.00
2013-1-18,46,28,5,31,19,1,85,70,50,0.00,40.00,17,8,29,0.03
2013-1-19,47,34,10,31,24,-6,94,69,33,0.00,40.00,29,11,50,0.01
2013-1-20,13,7,3,-3,-7,-9,64,53,35,0.00,40.00,21,10,37,0.00
2013-1-21,5,-2,-9,-2,-14,-20,76,58,39,0.00,40.00,16,10,29,0.00
2013-1-22,4,-5,-13,-10,-16,-21,71,59,41,0.00,40.00,10,5,17,0.00
2013-1-23,16,8,-2,9,-1,-14,77,68,55,0.00,40.00,19,9,30,0.00
2013-1-24,11,2,-7,-2,-10,-15,69,57,45,0.00,40.00,9,4,15,0.00
2013-1-25,22,16,11,12,8,0,85,69,58,0.00,40.00,12,9,23,0.02
2013-1-26,26,14,0,9,3,-5,79,61,42,0.00,40.00,8,5,15,0.01
2013-1-27,30,27,22,30,20,10,99,76,58,0.00,40.00,10,6,18,0.20
2013-1-28,35,32,30,33,31,30,100,96,87,0.00,40.00,7,4,14,0.01
2013-1-29,43,36,33,43,36,32,100,99,95,0.00,40.00,9,6,16,0.23
2013-1-30,33,24,13,33,22,6,99,89,73,0.00,40.00,17,12,29,0.26
2013-1-31,9,5,-1,0,-4,-10,74,65,60,0.00,40.00,15,12,27,0.01
2013-2-1,6,-2,-12,-2,-12,-19,78,61,44,0.00,40.00,9,6,19,0.02
2013-2-2,16,7,0,-1,-3,-5,79,66,42,0.00,40.00,6,3,11,0.04
2013-2-3,19,11,2,6,2,-2,83,67,48,0.00,40.00,14,7,26,0.01
2013-2-4,24,12,3,8,2,-6,85,64,31,0.00,40.00,8,4,12,0.01
2013-2-5,27,17,-1,22,12,-6,88,78,69,0.00,40.00,14,7,22,0.01
2013-2-6,28,13,-8,23,8,-15,90,79,62,0.00,40.00,7,3,16,0.01
2013-2-7,31,28,25,30,26,21,96,93,86,0.00,40.00,8,5,16,0.16
2013-2-8,32,20,6,21,11,3,88,71,42,0.00,40.00,8,4,16,0.06
2013-2-9,28,19,5,22,15,0,90,84,76,0.00,40.00,8,6,16,0.00
2013-2-10,39,32,26,39,31,23,100,94,85,0.00,40.00,9,6,20,0.34
2013-2-11,36,30,25,35,26,17,100,86,70,0.00,40.00,17,13,34,0.07
2013-2-12,34,24,19,19,16,11,90,71,54,0.00,40.00,12,8,20,0.01
2013-2-13,40,28,13,26,21,10,94,76,52,0.00,40.00,9,5,15,0.02
2013-2-14,35,31,21,33,26,6,100,81,58,0.00,40.00,18,11,30,0.13
2013-2-15,23,15,8,6,2,-2,70,57,42,0.00,40.00,12,8,24,0.00
2013-2-16,21,9,-6,1,-3,-14,75,59,36,0.00,40.00,12,5,19,0.00
2013-2-17,28,10,-15,14,-4,-23,74,57,35,0.00,40.00,8,4,17,0.00
2013-2-18,44,31,24,32,24,15,92,73,55,0.00,40.00,18,8,32,0.00
2013-2-19,20,11,5,16,1,-9,86,64,46,0.00,40.00,22,16,35,0.00
2013-2-20,26,12,0,6,-1,-9,72,57,40,0.00,40.00,12,8,21,0.00
2013-2-21,23,14,-1,20,8,-5,91,75,59,0.00,40.00,12,6,25,0.00
2013-2-22,31,25,22,27,22,19,93,88,81,0.00,40.00,11,6,22,0.16
2013-2-23,30,26,23,21,19,18,88,77,60,0.00,40.00,11,8,16,0.01
2013-2-24,42,26,9,23,17,5,93,73,43,0.00,40.00,6,3,11,0.00
2013-2-25,40,28,16,24,20,14,92,74,49,0.00,40.00,5,2,10,0.00
2013-2-26,38,29,21,25,22,19,95,79,60,0.00,40.00,14,8,31,0.00
2013-2-27,35,31,28,30,26,22,94,82,72,0.00,40.00,13,9,22,0.05
2013-2-28,33,31,26,27,22,15,86,70,57,0.00,40.00,11,9,20,0.01
2013-3-1,34,25,11,17,13,5,82,60,43,0.00,40.00,9,6,19,0.00
2013-3-2,32,17,4,9,4,-1,82,59,32,0.00,40.00,11,4,16,0.00
2013-3-3,38,18,-3,9,1,-8,80,53,15,0.00,40.00,5,2,11,0.00
2013-3-4,31,22,13,19,11,3,74,61,50,0.00,40.00,10,6,19,0.00
2013-3-5,29,26,23,26,22,17,93,85,69,0.00,40.00,10,7,17,0.26
2013-3-6,36,26,13,22,19,9,86,74,53,0.00,40.00,13,8,20,0.01
2013-3-7,42,24,0,18,12,-6,87,63,36,0.00,40.00,6,3,11,0.00
2013-3-8,43,30,17,23,20,14,91,68,42,0.00,40.00,9,6,18,0.00
2013-3-9,40,35,30,37,30,22,100,83,69,0.00,40.00,9,6,18,0.36
2013-3-10,38,36,32,37,35,32,100,98,91,0.00,40.00,11,5,21,0.61
2013-3-11,35,31,26,32,29,22,100,93,85,0.00,40.00,14,9,22,0.42
2013-3-12,28,26,21,24,20,14,93,79,68,0.00,40.00,13,9,23,0.00
2013-3-13,32,23,15,15,10,8,82,59,37,0.00,40.00,14,10,22,0.00
2013-3-14,38,23,9,26,17,5,90,78,62,0.00,40.00,7,4,11,0.00
2013-3-15,37,30,23,34,28,21,98,92,83,0.00,40.00,8,3,13,0.17
2013-3-16,30,24,18,27,16,8,93,70,54,0.00,40.00,12,7,20,0.19
2013-3-17,32,21,6,13,7,0,77,57,37,0.00,40.00,9,7,20,0.00
2013-3-18,33,23,14,28,18,8,90,83,71,0.00,40.00,18,7,28,0.26
2013-3-19,28,18,11,8,5,0,75,57,36,0.00,40.00,20,15,33,0.01
2013-3-20,22,13,5,1,-3,-8,62,48,38,0.00,40.00,16,12,26,0.00
2013-3-21,32,15,-1,7,1,-7,78,56,34,0.00,40.00,11,6,19,0.00
2013-3-22,42,23,3,12,7,-2,82,54,27,0.00,40.00,5,3,11,0.00
2013-3-23,47,28,13,18,13,8,82,57,27,0.00,40.00,5,3,11,0.00
2013-3-24,34,30,27,23,21,18,76,67,57,0.00,40.00,10,6,22,0.00
2013-3-25,37,30,21,21,19,15,83,62,52,0.00,40.00,15,10,23,0.00
2013-3-26,42,34,27,24,19,16,71,56,40,0.00,40.00,11,7,17,0.00
2013-3-27,47,36,30,22,19,15,68,52,29,0.00,40.00,8,5,19,0.00
2013-3-28,51,42,28,20,17,15,70,38,24,0.00,40.00,7,4,15,0.00
2013-3-29,56,37,17,21,17,14,86,52,20,0.00,40.00,7,2,13,0.00
2013-3-30,49,42,36,43,31,19,100,67,47,0.00,40.00,15,7,26,0.25
2013-3-31,40,36,30,38,29,13,100,76,35,0.00,40.00,17,10,31,0.01
2013-4-1,34,28,21,15,10,8,62,48,33,0.00,40.00,17,11,29,0.00
2013-4-2,39,29,19,12,10,5,70,47,27,0.00,40.00,14,8,30,0.00
2013-4-3,46,33,14,15,10,2,85,45,16,0.00,40.00,10,4,18,0.00
2013-4-4,53,42,31,32,22,15,64,46,37,0.00,40.00,14,9,25,0.00
2013-4-5,48,37,24,32,20,15,96,54,26,0.00,40.00,8,5,17,0.05
2013-4-6,56,42,31,49,33,24,97,73,44,0.00,40.00,18,9,28,0.05
2013-4-7,50,41,35,36,32,30,87,72,50,0.00,40.00,16,8,28,0.01
2013-4-8,45,39,36,38,34,31,94,83,75,0.00,40.00,8,5,16,0.01
2013-4-9,40,37,35,38,35,29,100,93,79,0.00,40.00,10,6,27,1.10
2013-4-10,35,33,31,33,30,25,96,90,69,0.00,40.00,10,7,27,1.14
2013-4-11,35,33,32,33,30,25,98,87,67,0.00,40.00,14,10,37,0.25
2013-4-12,38,33,30,32,30,28,99,91,76,0.00,40.00,10,6,16,0.13
2013-4-13,36,33,29,31,26,23,95,76,59,0.00,40.00,13,8,23,0.01
2013-4-14,39,33,27,36,29,23,94,86,69,0.00,40.00,12,7,26,0.46
2013-4-15,53,43,35,44,32,24,100,72,35,0.00,40.00,21,9,37,0.36
2013-4-16,51,39,32,28,27,25,80,63,37,0.00,40.00,10,6,19,0.00
2013-4-17,41,36,30,38,32,25,99,84,62,0.00,40.00,12,7,26,0.53
2013-4-18,42,39,37,42,39,36,100,99,94,0.00,40.00,12,6,21,0.52
2013-4-19,37,33,29,36,26,17,98,75,46,0.00,40.00,21,15,38,0.09
2013-4-20,46,34,19,20,12,4,89,47,18,0.00,40.00,13,7,23,0.00
2013-4-21,51,38,31,36,28,13,98,68,44,0.00,40.00,10,6,24,0.15
2013-4-22,50,47,45,48,43,36,100,87,63,0.00,40.00,10,5,22,0.14
2013-4-23,48,40,32,48,33,24,100,79,58,0.00,40.00,17,10,27,0.02
2013-4-24,52,40,26,35,22,17,91,56,29,0.00,40.00,14,8,33,0.01
2013-4-25,50,41,34,36,30,24,96,67,37,0.00,40.00,14,8,22,0.03
2013-4-26,71,55,37,44,33,25,66,45,28,0.00,40.00,17,10,31,0.01
2013-4-27,71,60,48,47,44,41,92,60,38,0.00,40.00,10,7,19,0.00
2013-4-28,75,58,38,46,40,37,96,57,26,0.00,40.00,8,4,18,0.00
2013-4-29,74,63,55,55,49,41,88,62,47,0.00,40.00,13,6,22,0.01
2013-4-30,85,76,60,55,52,41,85,46,32,0.00,40.00,19,13,40,0.01
2013-5-1,68,58,46,48,43,34,88,59,38,0.00,40.00,18,10,33,0.01
2013-5-2,43,38,34,36,33,30,92,81,69,0.00,40.00,13,9,25,0.04
2013-5-3,42,37,32,42,35,29,99,94,85,0.00,40.00,11,6,17,0.78
2013-5-4,72,55,42,53,47,42,99,76,42,0.00,40.00,7,4,15,0.02
2013-5-5,77,58,43,48,45,40,97,66,28,0.00,40.00,6,3,14,0.00
2013-5-6,78,61,41,46,41,37,97,56,23,0.00,40.00,8,4,15,0.00
2013-5-7,82,64,45,46,38,28,93,48,14,0.00,40.00,9,4,16,0.00
2013-5-8,81,66,44,47,41,37,85,45,21,0.00,40.00,6,2,14,0.00
2013-5-9,63,58,50,56,52,47,97,83,58,0.00,40.00,11,6,23,0.75
2013-5-10,62,50,41,47,42,-100,96,79,52,0.00,40.00,11,6,26,0.64
2013-5-11,52,47,41,47,34,22,97,63,33,0.00,40.00,25,13,47,0.03
2013-5-12,56,44,32,27,21,13,73,43,20,0.00,40.00,17,11,33,0.01
2013-5-13,66,50,27,33,25,21,81,42,20,0.00,40.00,9,5,22,0.00
2013-5-14,90,72,53,55,45,33,67,40,23,0.00,40.00,14,7,29,0.00
2013-5-15,77,70,61,52,41,35,56,36,23,0.00,40.00,15,9,30,0.00
2013-5-16,86,64,48,50,27,-100,89,49,23,0.00,40.00,9,5,26,0.00
2013-5-17,62,54,49,54,41,-100,95,74,38,0.00,40.00,11,6,19,0.43
2013-5-18,80,65,51,63,56,49,94,74,53,0.00,40.00,7,5,16,0.02
2013-5-19,87,73,62,64,60,55,91,68,42,0.00,40.00,14,7,27,0.00
2013-5-20,83,72,61,62,59,55,98,69,41,0.00,40.00,17,8,31,0.48
2013-5-21,74,66,59,64,59,55,99,78,55,0.00,40.00,14,6,22,0.17
2013-5-22,64,59,55,59,57,51,98,94,83,0.00,40.00,9,4,17,1.38
2013-5-23,65,55,45,51,41,31,97,64,29,0.00,40.00,11,8,28,0.59
2013-5-24,67,54,34,41,33,29,91,51,24,0.00,40.00,6,4,14,0.01
2013-5-25,64,56,50,43,40,36,77,56,38,0.00,40.00,8,4,14,0.00
2013-5-26,66,56,46,48,40,36,72,57,36,0.00,40.00,8,5,17,0.00
2013-5-27,57,55,51,53,47,38,97,77,53,0.00,40.00,11,6,22,0.46
2013-5-28,62,56,51,59,54,50,99,95,89,0.00,40.00,7,4,15,0.21
2013-5-29,86,70,58,65,62,58,100,79,43,0.00,40.00,12,5,20,0.69
2013-5-30,81,71,63,71,66,61,99,86,62,0.00,40.00,14,7,24,1.50
2013-5-31,81,71,62,63,60,56,90,71,42,0.00,40.00,15,9,34,0.01
2013-6-1,77,66,54,62,54,50,89,67,41,0.00,40.00,16,7,28,0.02
2013-6-2,64,54,45,51,41,37,88,63,39,0.00,40.00,17,10,29,0.02
2013-6-3,73,58,38,48,42,36,95,60,33,0.00,40.00,8,4,18,0.00
2013-6-4,57,55,52,55,52,48,97,91,73,0.00,40.00,6,4,14,0.63
2013-6-5,58,54,51,57,52,49,96,92,85,0.00,40.00,6,4,16,0.56
2013-6-6,57,54,51,54,51,49,98,92,84,0.00,40.00,5,4,12,0.29
2013-6-7,71,59,50,54,50,45,97,73,44,0.00,40.00,5,3,11,0.01
2013-6-8,66,60,52,56,53,50,98,79,57,0.00,40.00,8,2,15,0.02
2013-6-9,76,63,55,64,56,49,99,80,53,0.00,40.00,10,5,19,0.72
2013-6-10,81,69,56,63,61,56,100,77,48,0.00,40.00,9,4,17,0.50
2013-6-11,80,68,53,67,61,52,98,80,55,0.00,40.00,8,3,14,0.01
2013-6-12,77,68,62,67,64,58,99,86,66,0.00,40.00,11,4,17,0.05
2013-6-13,80,69,58,59,56,52,98,67,39,0.00,40.00,14,6,25,0.01
2013-6-14,79,68,53,57,53,48,95,60,40,0.00,40.00,6,4,16,0.00
2013-6-15,80,69,61,67,63,57,99,82,62,0.00,40.00,13,6,21,2.09
2013-6-16,84,71,57,64,55,45,99,65,26,0.00,40.00,12,6,20,1.14
2013-6-17,84,70,59,60,56,48,97,64,30,0.00,40.00,15,6,34,0.10
2013-6-18,76,65,55,58,49,43,90,60,35,0.00,40.00,7,5,14,0.10
2013-6-19,81,68,49,56,51,46,91,57,37,0.00,40.00,7,4,15,0.00
2013-6-20,86,72,60,60,56,53,82,61,34,0.00,40.00,12,5,19,0.00
2013-6-22,80,74,66,68,67,65,97,78,65,0.00,40.00,10,6,32,1.21
2013-6-23,86,75,65,71,66,63,98,76,50,0.00,40.00,15,9,28,1.35
2013-6-24,83,74,67,70,66,65,94,78,64,0.00,40.00,12,6,23,0.05
2013-6-25,82,72,66,72,68,65,99,86,70,0.00,40.00,5,3,11,0.40
2013-6-26,87,77,71,72,70,68,99,82,53,0.00,40.00,7,4,15,0.04
2013-6-27,87,78,68,71,64,56,99,69,36,0.00,40.00,15,7,28,0.00
2013-6-28,78,69,64,68,60,55,95,75,59,0.00,40.00,16,8,27,0.12
2013-6-29,72,66,61,64,60,54,98,83,66,0.00,40.00,9,6,18,0.08
2013-6-30,81,68,54,55,50,44,86,56,27,0.00,40.00,8,5,15,0.01
2013-7-1,84,69,52,62,53,49,95,64,31,0.00,40.00,7,3,14,0.03
2013-7-2,80,68,57,61,53,47,95,62,37,0.00,40.00,7,4,14,0.03
2013-7-3,74,64,49,60,54,46,91,72,53,0.00,40.00,6,3,13,0.00
2013-7-4,85,71,57,60,58,54,97,67,36,0.00,40.00,11,5,19,0.00
2013-7-5,87,77,61,63,59,56,90,58,35,0.00,40.00,13,7,23,0.00
2013-7-6,90,77,65,64,62,60,84,63,40,0.00,40.00,10,6,18,0.00
2013-7-7,92,79,67,70,66,63,88,67,39,0.00,40.00,12,6,22,0.00
2013-7-8,93,80,75,71,70,68,84,72,47,0.00,40.00,9,6,16,0.00
2013-7-9,87,77,71,75,71,67,96,81,60,0.00,40.00,15,6,29,0.30
2013-7-10,80,73,61,68,56,-100,85,60,39,0.00,40.00,19,9,30,0.04
2013-7-11,86,70,54,60,55,52,95,65,34,0.00,40.00,6,2,10,0.00
2013-7-12,86,73,55,59,56,52,95,60,32,0.00,40.00,11,5,20,0.00
2013-7-13,85,73,62,64,59,57,85,63,42,0.00,40.00,11,5,20,0.00
2013-7-14,90,77,64,65,62,58,84,62,38,0.00,40.00,9,4,16,0.00
2013-7-15,91,79,65,70,68,64,95,70,49,0.00,40.00,5,2,11,0.00
2013-7-16,93,88,79,73,71,69,77,58,46,0.00,40.00,11,7,18,0.00
2013-7-17,95,84,73,73,70,65,93,65,37,0.00,40.00,12,6,19,0.00
2013-7-18,96,86,73,71,69,67,89,61,41,0.00,40.00,16,9,29,0.00
2013-7-19,93,83,72,70,66,59,75,57,34,0.00,40.00,16,9,27,0.00
2013-7-20,85,73,59,61,57,-100,91,62,40,0.00,40.00,10,5,14,0.00
2013-7-21,71,65,60,65,61,55,97,86,68,0.00,40.00,6,4,24,1.08
2013-7-22,87,72,60,72,65,59,99,80,56,0.00,40.00,15,6,33,0.03
2013-7-23,75,69,60,67,54,48,81,61,43,0.00,40.00,13,8,23,0.03
2013-7-24,78,64,47,55,50,45,94,63,35,0.00,40.00,6,3,12,0.00
2013-7-25,79,66,55,65,58,52,92,78,52,0.00,40.00,14,7,24,0.03
2013-7-26,77,66,58,65,58,47,98,78,40,0.00,40.00,17,8,30,0.10
2013-7-27,58,54,48,50,46,43,89,76,63,0.00,40.00,12,8,22,0.06
2013-7-28,67,58,49,53,50,47,95,77,56,0.00,40.00,15,9,24,0.01
2013-7-29,79,65,51,57,53,49,93,66,42,0.00,40.00,8,4,14,0.00
2013-7-30,77,68,60,60,58,56,92,73,49,0.00,40.00,7,4,12,0.00
2013-7-31,78,67,61,64,61,58,95,83,54,0.00,40.00,9,4,16,0.16
2013-8-1,79,65,57,60,56,50,96,75,37,0.00,40.00,13,4,24,0.16
2013-8-2,81,70,56,63,54,50,97,61,37,0.00,40.00,12,6,21,0.02
2013-8-3,78,65,48,55,50,46,95,63,33,0.00,40.00,12,5,21,0.00
2013-8-4,75,63,47,56,50,45,93,66,42,0.00,40.00,5,2,12,0.00
2013-8-5,73,64,54,64,59,52,96,85,66,0.00,40.00,9,5,17,0.05
2013-8-6,84,72,63,68,63,57,99,77,41,0.00,40.00,15,6,41,0.05
2013-8-7,80,67,59,65,60,54,98,79,47,0.00,40.00,15,7,41,0.38
2013-8-8,80,65,47,57,52,46,95,66,38,0.00,40.00,7,3,17,0.01
2013-8-9,79,70,63,59,55,50,87,62,36,0.00,40.00,12,6,22,0.00
2013-8-10,75,66,53,55,52,48,91,64,41,0.00,40.00,9,3,16,0.00
2013-8-11,70,62,54,63,59,52,98,91,77,0.00,40.00,6,2,9,0.30
2013-8-12,79,66,55,65,58,53,99,78,41,0.00,40.00,15,4,23,0.01
2013-8-13,74,60,46,55,46,-100,96,65,36,0.00,40.00,10,4,18,0.01
2013-8-14,75,59,42,54,44,-100,94,67,37,0.00,40.00,6,2,14,0.00
2013-8-15,79,62,55,57,44,-100,93,65,33,0.00,40.00,9,4,16,0.00
2013-8-16,82,63,49,56,47,-100,94,65,33,0.00,40.00,6,2,13,0.00
2013-8-17,85,68,50,57,51,-100,94,62,31,0.00,40.00,9,2,14,0.00
2013-8-18,84,69,53,58,54,51,93,64,35,0.00,40.00,10,4,21,0.00
2013-8-19,83,68,56,62,52,-100,95,70,44,0.00,40.00,12,7,21,0.00
2013-8-20,89,75,63,65,61,-100,90,67,42,0.00,40.00,14,7,26,0.00
2013-8-21,92,79,70,73,67,63,94,69,49,0.00,40.00,15,7,25,0.02
2013-8-22,86,73,65,69,61,52,98,71,31,0.00,40.00,7,3,14,0.02
2013-8-23,87,73,57,62,56,53,91,59,33,0.00,40.00,10,5,19,0.00
2013-8-24,86,73,59,68,58,-100,77,61,46,0.00,40.00,10,5,19,0.00
2013-8-25,93,82,73,70,68,64,81,64,43,0.00,40.00,16,10,27,0.00
2013-8-26,93,83,74,75,68,62,81,62,49,0.00,40.00,13,8,25,0.00
2013-8-27,92,81,75,73,71,69,84,72,49,0.00,40.00,12,6,22,0.00
2013-8-28,89,82,75,69,68,66,76,63,49,0.00,40.00,5,4,12,0.00
2013-8-29,92,78,63,71,68,62,97,72,49,0.00,40.00,11,4,18,0.00
2013-8-30,91,80,73,74,69,62,91,69,44,0.00,40.00,11,7,23,0.00
2013-8-31,87,74,61,65,61,59,94,68,41,0.00,40.00,6,4,15,0.00
2013-9-1,87,74,66,69,62,54,96,69,34,0.00,40.00,17,7,26,0.00
2013-9-2,73,63,53,58,52,47,95,69,43,0.00,40.00,10,6,19,0.00
2013-9-3,76,58,40,50,46,39,97,71,39,0.00,40.00,9,4,16,0.00
2013-9-4,86,67,48,64,55,45,94,70,41,0.00,40.00,8,4,16,0.00
2013-9-5,82,70,60,63,56,50,95,65,33,0.00,40.00,8,5,15,0.00
2013-9-6,90,73,57,64,56,46,79,57,39,0.00,40.00,12,6,22,0.00
2013-9-7,95,78,69,69,63,-100,75,62,40,0.00,40.00,9,5,15,0.00
2013-9-8,74,69,62,66,59,54,85,73,57,0.00,40.00,9,6,21,0.00
2013-9-9,92,77,63,72,66,62,96,72,50,0.00,40.00,11,6,20,0.00
2013-9-10,91,83,75,66,63,60,62,52,42,0.00,40.00,13,9,25,0.00
2013-9-11,84,74,66,63,60,54,82,62,39,0.00,40.00,13,6,22,0.00
2013-9-12,73,63,54,55,49,43,90,65,36,0.00,40.00,15,8,29,0.00
2013-9-13,69,53,38,43,38,33,96,63,30,0.00,40.00,6,3,13,0.00
2013-9-14,74,57,38,46,40,-100,93,58,33,0.00,40.00,11,6,21,0.00
2013-9-15,67,59,54,59,53,47,97,82,58,0.00,40.00,8,4,15,0.86
2013-9-16,68,55,38,47,40,36,93,61,36,0.00,40.00,8,4,14,0.01
2013-9-17,68,55,37,57,47,35,95,78,53,0.00,40.00,8,4,15,0.07
2013-9-18,69,60,58,65,58,56,95,93,87,0.00,40.00,4,4,11,0.23
2013-9-19,80,73,68,71,68,64,96,83,68,0.00,40.00,12,6,23,0.06
2013-9-20,68,63,55,67,58,49,98,86,61,0.00,40.00,12,7,22,0.07
2013-9-21,63,53,44,49,44,-100,95,76,49,0.00,40.00,11,6,20,0.01
2013-9-22,67,52,35,45,41,33,96,71,44,0.00,40.00,6,3,13,0.00
2013-9-23,71,56,44,51,47,42,93,73,47,0.00,40.00,8,5,20,0.00
2013-9-24,74,59,44,52,48,43,98,72,41,0.00,40.00,7,3,14,0.00
2013-9-25,72,57,43,54,49,42,98,77,45,0.00,40.00,6,3,13,0.00
2013-9-26,77,61,45,56,51,44,97,73,41,0.00,40.00,7,4,15,0.00
2013-9-27,82,67,54,54,51,47,83,58,32,0.00,40.00,11,5,20,0.00
2013-9-28,78,63,52,65,52,-100,97,71,47,0.00,40.00,16,8,31,0.45
2013-9-29,72,56,40,51,45,39,98,72,34,0.00,40.00,10,5,18,0.06
2013-9-30,74,60,48,49,45,42,89,61,32,0.00,40.00,15,7,27,0.00
2013-10-1,75,62,51,47,46,45,83,60,37,0.00,40.00,10,4,18,0.00
2013-10-2,77,58,38,48,40,34,95,59,21,0.00,40.00,7,3,14,0.00
2013-10-3,71,62,54,62,56,44,96,81,55,0.00,40.00,8,4,24,0.23
2013-10-4,59,58,56,58,57,55,98,96,93,0.00,40.00,9,5,16,0.46
2013-10-5,68,62,57,67,60,49,98,96,85,0.00,40.00,9,6,27,1.36
2013-10-6,57,49,38,49,41,35,97,75,46,0.00,40.00,7,4,12,0.41
2013-10-7,66,52,42,47,43,39,96,75,39,0.00,40.00,14,7,25,0.05
2013-10-8,76,59,38,47,43,36,95,61,30,0.00,40.00,14,6,26,0.00
2013-10-9,74,61,47,49,46,44,92,62,39,0.00,40.00,11,4,21,0.00
2013-10-10,74,60,42,50,46,40,93,64,36,0.00,40.00,8,4,15,0.00
2013-10-11,74,62,51,57,52,48,92,73,54,0.00,40.00,9,6,22,0.00
2013-10-12,66,60,46,56,45,-100,81,61,40,0.00,40.00,15,8,26,0.00
2013-10-13,62,48,36,39,35,31,93,66,31,0.00,40.00,14,5,20,0.00
2013-10-14,61,46,29,42,36,27,95,71,45,0.00,40.00,8,4,20,0.00
2013-10-15,58,51,47,56,47,40,96,86,69,0.00,40.00,11,7,22,0.55
2013-10-16,50,48,44,47,45,37,97,90,78,0.00,40.00,10,6,16,0.01
2013-10-17,55,43,32,40,36,30,97,78,47,0.00,40.00,8,4,17,0.00
2013-10-18,49,43,36,44,39,34,92,84,64,0.00,40.00,15,7,23,0.02
2013-10-19,51,38,30,40,32,-100,95,82,42,0.00,40.00,17,5,31,0.09
2013-10-20,46,38,29,43,37,28,97,94,87,0.00,40.00,14,4,28,0.10
2013-10-21,42,36,33,37,26,18,87,66,45,0.00,40.00,16,10,28,0.01
2013-10-22,48,35,25,28,24,21,88,66,42,0.00,40.00,10,6,19,0.00
2013-10-23,40,32,22,30,25,20,90,77,53,0.00,40.00,11,5,26,0.00
2013-10-24,43,36,31,26,24,22,76,61,44,0.00,40.00,13,8,24,0.00
2013-10-25,51,41,28,29,26,24,84,59,39,0.00,40.00,18,10,35,0.00
2013-10-26,51,46,40,36,28,-100,72,52,39,0.00,40.00,19,12,35,0.00
2013-10-27,57,40,26,30,27,23,89,63,32,0.00,40.00,13,6,26,0.00
2013-10-28,42,38,34,31,24,-100,79,60,49,0.00,40.00,10,6,20,0.00
2013-10-29,49,39,33,38,30,23,93,71,58,0.00,40.00,6,4,12,0.00
2013-10-30,54,48,38,52,46,37,97,91,84,0.00,40.00,6,4,13,0.00
2013-10-31,55,51,42,55,50,39,100,98,92,0.00,40.00,12,6,21,0.05
2013-11-1,46,42,37,41,38,34,95,88,76,0.00,40.00,11,8,21,0.03
2013-11-2,45,38,28,35,31,-100,93,81,64,0.00,40.00,11,6,15,0.01
2013-11-3,51,36,22,34,28,20,95,75,43,0.00,40.00,10,4,21,0.00
2013-11-4,50,46,42,45,38,33,96,74,59,0.00,40.00,12,8,23,0.04
2013-11-5,50,43,30,45,40,29,98,92,61,0.00,40.00,6,3,12,1.00
2013-11-6,44,38,30,43,30,19,98,77,42,0.00,40.00,16,10,25,0.92
2013-11-7,38,30,22,28,25,20,93,81,64,0.00,40.00,10,5,20,0.01
2013-11-8,43,32,19,31,25,16,93,76,56,0.00,40.00,10,5,20,0.04
2013-11-9,47,44,39,38,33,24,85,67,52,0.00,40.00,19,13,36,0.05
2013-11-10,46,41,38,28,26,24,64,55,42,0.00,40.00,16,9,25,0.00
2013-11-11,42,30,19,33,19,8,94,66,45,0.00,40.00,17,10,26,0.05
2013-11-12,28,20,13,11,8,5,72,60,39,0.00,40.00,11,7,19,0.03
2013-11-13,47,29,13,25,14,8,81,56,35,0.00,40.00,18,10,30,0.00
2013-11-14,51,40,33,28,23,15,65,49,38,0.00,40.00,12,8,19,0.00
2013-11-15,56,40,24,35,30,22,91,70,43,0.00,40.00,7,4,15,0.00
2013-11-16,58,45,37,56,42,-100,98,90,75,0.00,40.00,10,6,19,0.72
2013-11-17,54,47,38,52,44,28,100,90,68,0.00,40.00,20,11,41,0.25
2013-11-18,37,31,22,28,21,17,83,66,58,0.00,40.00,21,14,36,0.01
2013-11-19,40,28,15,25,19,12,90,71,46,0.00,40.00,8,5,17,0.00
2013-11-20,39,36,33,33,28,25,96,73,58,0.00,40.00,9,7,21,0.07
2013-11-21,40,37,32,37,35,28,98,93,87,0.00,40.00,12,5,17,0.07
2013-11-22,34,28,22,28,18,10,91,68,39,0.00,40.00,13,9,24,0.02
2013-11-23,23,15,4,13,2,-3,74,55,38,0.00,40.00,17,12,31,0.01
2013-11-24,26,14,-1,2,-2,-6,78,52,27,0.00,40.00,17,8,28,0.00
2013-11-25,35,30,24,25,17,1,76,59,33,0.00,40.00,16,11,28,0.00
2013-11-26,35,24,10,22,11,0,77,56,40,0.00,40.00,17,10,29,0.00
2013-11-27,28,17,7,10,5,-1,78,59,40,0.00,40.00,9,6,17,0.00
2013-11-28,30,24,17,13,10,8,79,56,44,0.00,40.00,12,5,21,0.00
2013-11-29,32,19,3,17,10,-2,84,69,46,0.00,40.00,9,4,16,0.00
2013-11-30,45,34,26,27,22,-100,74,62,47,0.00,40.00,11,5,19,0.00
2013-12-1,39,29,22,25,22,19,91,76,50,0.00,40.00,6,2,10,0.00
2013-12-2,38,30,18,32,25,15,97,83,70,0.00,40.00,9,5,22,0.19
2013-12-3,34,33,32,33,32,31,98,96,94,0.00,40.00,9,7,18,0.34
2013-12-4,38,34,31,38,34,25,100,97,81,0.00,40.00,16,7,29,0.06
2013-12-5,31,17,7,25,6,-1,79,63,48,0.00,40.00,19,14,36,0.02
2013-12-6,12,5,1,-1,-4,-7,77,67,49,0.00,40.00,11,7,21,0.00
2013-12-7,11,1,-5,-7,-10,-100,73,63,40,0.00,40.00,8,5,15,0.00
2013-12-8,12,8,-2,7,2,-8,84,75,62,0.00,40.00,7,4,12,0.02
2013-12-9,14,6,-8,6,-2,-15,83,69,52,0.00,40.00,18,8,31,0.02
2013-12-10,14,6,-6,6,-4,-12,75,63,48,0.00,40.00,18,9,29,0.00
2013-12-11,11,1,-10,6,-9,-18,83,63,40,0.00,40.00,14,8,22,0.00
2013-12-12,21,9,-10,9,-1,-17,70,62,52,0.00,40.00,11,6,19,0.00
2013-12-13,21,17,13,11,7,1,78,65,55,0.00,40.00,10,6,17,0.00
2013-12-14,22,17,13,15,10,-100,83,76,65,0.00,40.00,10,6,18,0.01
2013-12-15,14,5,-5,8,-7,-16,75,59,39,0.00,40.00,14,10,24,0.01
2013-12-16,14,4,-9,11,-4,-16,86,70,54,0.00,40.00,9,3,17,0.13
2013-12-17,33,24,14,24,17,4,89,75,55,0.00,40.00,17,10,30,0.02
2013-12-18,37,19,0,23,9,-5,83,67,44,0.00,40.00,13,5,22,0.01
2013-12-19,27,22,14,21,17,11,92,81,71,0.00,40.00,10,6,20,0.00
2013-12-20,22,20,18,20,17,14,91,88,83,0.00,40.00,10,5,19,0.12
2013-12-21,26,23,21,24,20,-100,94,88,79,0.00,40.00,9,4,15,0.01
2013-12-22,28,23,19,20,19,17,91,84,71,0.00,40.00,7,4,15,0.19
2013-12-23,21,8,-4,19,3,-11,90,78,71,0.00,40.00,10,7,17,0.04
2013-12-24,16,2,-20,5,-6,-28,82,70,60,0.00,40.00,7,4,16,0.04
2013-12-25,21,15,8,18,10,3,88,81,74,0.00,40.00,11,6,20,0.13
2013-12-26,23,17,11,17,11,6,89,78,65,0.00,40.00,10,3,19,0.01
2013-12-27,38,22,1,29,15,-4,87,76,61,0.00,40.00,13,6,20,0.01
2013-12-28,47,34,20,31,25,-100,95,74,49,0.00,40.00,8,6,16,0.01
2013-12-29,40,15,-9,30,5,-21,91,66,53,0.00,40.00,19,13,30,0.00
2013-12-30,3,-7,-22,-7,-18,-30,75,60,34,0.00,40.00,6,3,10,0.01
2013-12-31,5,0,-6,-6,-9,-19,75,65,53,0.00,40.00,9,5,15,0.01
2014-1-1,9,1,-12,-6,-11,-19,70,56,40,0.00,40.00,7,4,13,0.00
2014-1-2,12,3,-12,-3,-8,-22,73,58,39,0.00,40.00,10,5,22,0.00